Jackson, TN

12:10 AM CDT on September 27, 2016 (GMT -0500)
Lana Area - Summar Drive | | Change Station

Elev 415 ft 35.63 °N, 88.83 °W | Updated 1 minute ago

Clear
Clear
57.8 °F
Feels Like 57.8 °F
N
0.0
Wind Variable Wind from SSE

Today
High -- | Low -- °F
--% Chance of Precip.
Yesterday
High -- | Low -- °F
Precip. -- in
Pressure 30.10 in
Visibility 2.0 miles
Clouds Clear
Dew Point 55 °F
Humidity 91%
Rainfall 0.00 in
Snow Depth Not available.
6:47 AM 6:44 PM
Waning Crescent, 14% visible
METAR KUCY 270455Z AUTO 00000KT 2SM CLR 11/11 A3010 RMK
Pressure 30.10 in
Visibility 2.0 miles
Clouds Clear
Dew Point 55 °F
Humidity 91%
Rainfall 0.00 in
Snow Depth Not available.
6:47 AM 6:44 PM
Waning Crescent, 14% visible
METAR KUCY 270455Z AUTO 00000KT 2SM CLR 11/11 A3010 RMK

10-Day Weather Forecast

Almanac

Astronomy

Sep. 27, 2016 Rise Set
Actual Time
Civil Twilight
Nautical Twilight
Astronomical Twilight
Moon
Length of Visible Light
Length of Day
Tomorrow will be .
, % of the Moon is Illuminated

Today's Extremes

State Highs State Lows

Community

WunderPhotos

Upload Photos

1,942,035 photos uploaded!

WunderBlog® & News

Nearby

Air Quality

  Air Quality AQ Index Pollutant
Not available.

Snow Depth

Station Depth Elevation

Earthquake Activity

City Distance Mag. Time & Date
Minimum magnitude displayed is 2.5.

Coastal Water Temperatures

Place Temperature

Stations

Nearby Weather Stations

Station Location Temp. Windchill Dew Point Humidity Wind Precip. Elev Updated Type
                   

Watches & Warnings

There are currently no watches in effect.